sensor_id;sensor_type;location;lat;lon;timestamp;P1;durP1;ratioP1;P2;durP2;ratioP2
65751;SDS011;52486;51.098;13.770;2023-10-19T00:01:06;8.57;;;3.38;;
65751;SDS011;52486;51.098;13.770;2023-10-19T00:03:32;5.97;;;3.55;;
65751;SDS011;52486;51.098;13.770;2023-10-19T00:05:58;4.20;;;3.08;;
65751;SDS011;52486;51.098;13.770;2023-10-19T00:08:25;9.40;;;3.45;;
65751;SDS011;52486;51.098;13.770;2023-10-19T00:11:01;5.93;;;3.38;;
65751;SDS011;52486;51.098;13.770;2023-10-19T00:13:27;8.18;;;3.60;;
65751;SDS011;52486;51.098;13.770;2023-10-19T00:15:55;7.55;;;2.97;;
65751;SDS011;52486;51.098;13.770;2023-10-19T00:18:22;4.70;;;3.05;;
65751;SDS011;52486;51.098;13.770;2023-10-19T00:20:50;4.00;;;2.95;;
65751;SDS011;52486;51.098;13.770;2023-10-19T00:23:24;4.55;;;3.00;;
65751;SDS011;52486;51.098;13.770;2023-10-19T00:25:59;6.38;;;3.40;;
65751;SDS011;52486;51.098;13.770;2023-10-19T00:28:30;6.70;;;2.70;;
65751;SDS011;52486;51.098;13.770;2023-10-19T00:31:00;4.90;;;3.03;;
65751;SDS011;52486;51.098;13.770;2023-10-19T00:33:29;5.53;;;3.13;;
65751;SDS011;52486;51.098;13.770;2023-10-19T00:35:59;4.55;;;3.10;;
65751;SDS011;52486;51.098;13.770;2023-10-19T00:38:40;4.90;;;3.20;;
65751;SDS011;52486;51.098;13.770;2023-10-19T00:41:18;4.53;;;3.30;;
65751;SDS011;52486;51.098;13.770;2023-10-19T00:43:54;5.25;;;2.92;;
65751;SDS011;52486;51.098;13.770;2023-10-19T00:46:27;8.57;;;3.70;;
65751;SDS011;52486;51.098;13.770;2023-10-19T00:49:08;5.22;;;2.88;;
65751;SDS011;52486;51.098;13.770;2023-10-19T00:51:41;8.43;;;3.10;;
65751;SDS011;52486;51.098;13.770;2023-10-19T00:54:18;6.70;;;3.15;;
65751;SDS011;52486;51.098;13.770;2023-10-19T00:56:51;5.68;;;3.28;;
65751;SDS011;52486;51.098;13.770;2023-10-19T00:59:21;5.90;;;3.00;;
65751;SDS011;52486;51.098;13.770;2023-10-19T01:01:54;6.15;;;3.15;;
65751;SDS011;52486;51.098;13.770;2023-10-19T01:04:30;3.38;;;3.00;;
65751;SDS011;52486;51.098;13.770;2023-10-19T01:06:59;6.53;;;2.92;;
65751;SDS011;52486;51.098;13.770;2023-10-19T01:09:29;8.13;;;3.60;;
65751;SDS011;52486;51.098;13.770;2023-10-19T01:12:00;8.40;;;3.53;;
65751;SDS011;52486;51.098;13.770;2023-10-19T01:14:29;6.93;;;3.73;;
65751;SDS011;52486;51.098;13.770;2023-10-19T01:16:55;5.85;;;3.53;;
65751;SDS011;52486;51.098;13.770;2023-10-19T01:19:24;6.13;;;3.53;;
65751;SDS011;52486;51.098;13.770;2023-10-19T01:21:52;8.10;;;3.80;;
65751;SDS011;52486;51.098;13.770;2023-10-19T01:24:24;5.50;;;3.80;;
65751;SDS011;52486;51.098;13.770;2023-10-19T01:27:07;6.05;;;3.85;;
65751;SDS011;52486;51.098;13.770;2023-10-19T01:29:36;7.20;;;3.60;;
65751;SDS011;52486;51.098;13.770;2023-10-19T01:32:06;4.13;;;3.28;;
65751;SDS011;52486;51.098;13.770;2023-10-19T01:34:37;6.53;;;3.38;;
65751;SDS011;52486;51.098;13.770;2023-10-19T01:37:03;5.72;;;3.63;;
65751;SDS011;52486;51.098;13.770;2023-10-19T01:39:30;11.27;;;3.72;;
65751;SDS011;52486;51.098;13.770;2023-10-19T01:41:56;4.85;;;3.60;;
65751;SDS011;52486;51.098;13.770;2023-10-19T01:44:22;5.07;;;3.30;;
65751;SDS011;52486;51.098;13.770;2023-10-19T01:46:49;7.80;;;3.75;;
65751;SDS011;52486;51.098;13.770;2023-10-19T01:49:16;7.75;;;3.85;;
65751;SDS011;52486;51.098;13.770;2023-10-19T01:51:51;6.95;;;3.60;;
65751;SDS011;52486;51.098;13.770;2023-10-19T01:54:17;6.45;;;3.65;;
65751;SDS011;52486;51.098;13.770;2023-10-19T01:56:47;6.72;;;3.65;;
65751;SDS011;52486;51.098;13.770;2023-10-19T01:59:15;10.85;;;4.20;;
65751;SDS011;52486;51.098;13.770;2023-10-19T02:01:41;4.18;;;3.47;;
65751;SDS011;52486;51.098;13.770;2023-10-19T02:04:10;7.68;;;3.33;;
65751;SDS011;52486;51.098;13.770;2023-10-19T02:06:38;5.65;;;3.80;;
65751;SDS011;52486;51.098;13.770;2023-10-19T02:09:12;6.47;;;3.70;;
65751;SDS011;52486;51.098;13.770;2023-10-19T02:11:54;5.15;;;3.75;;
65751;SDS011;52486;51.098;13.770;2023-10-19T02:14:21;7.10;;;3.88;;
65751;SDS011;52486;51.098;13.770;2023-10-19T02:16:50;7.03;;;4.03;;
65751;SDS011;52486;51.098;13.770;2023-10-19T02:19:17;6.95;;;4.00;;
65751;SDS011;52486;51.098;13.770;2023-10-19T02:21:44;5.72;;;3.92;;
65751;SDS011;52486;51.098;13.770;2023-10-19T02:24:13;6.28;;;3.90;;
65751;SDS011;52486;51.098;13.770;2023-10-19T02:26:40;7.97;;;3.90;;
65751;SDS011;52486;51.098;13.770;2023-10-19T02:29:09;8.95;;;3.60;;
65751;SDS011;52486;51.098;13.770;2023-10-19T02:31:36;8.45;;;4.35;;
65751;SDS011;52486;51.098;13.770;2023-10-19T02:34:05;5.43;;;4.13;;
65751;SDS011;52486;51.098;13.770;2023-10-19T02:36:32;5.85;;;4.10;;
65751;SDS011;52486;51.098;13.770;2023-10-19T02:39:01;12.07;;;4.20;;
65751;SDS011;52486;51.098;13.770;2023-10-19T02:41:38;8.57;;;4.07;;
65751;SDS011;52486;51.098;13.770;2023-10-19T02:44:17;9.02;;;4.10;;
65751;SDS011;52486;51.098;13.770;2023-10-19T02:46:45;4.97;;;4.10;;
65751;SDS011;52486;51.098;13.770;2023-10-19T02:49:12;5.00;;;4.05;;
65751;SDS011;52486;51.098;13.770;2023-10-19T02:51:40;11.70;;;4.30;;
65751;SDS011;52486;51.098;13.770;2023-10-19T02:54:09;6.63;;;4.15;;
65751;SDS011;52486;51.098;13.770;2023-10-19T02:56:44;8.40;;;3.70;;
65751;SDS011;52486;51.098;13.770;2023-10-19T02:59:13;9.27;;;3.95;;
65751;SDS011;52486;51.098;13.770;2023-10-19T03:01:41;7.00;;;4.18;;
65751;SDS011;52486;51.098;13.770;2023-10-19T03:04:09;6.60;;;4.35;;
65751;SDS011;52486;51.098;13.770;2023-10-19T03:06:37;6.47;;;4.20;;
65751;SDS011;52486;51.098;13.770;2023-10-19T03:09:06;6.85;;;4.38;;
65751;SDS011;52486;51.098;13.770;2023-10-19T03:11:47;6.22;;;4.05;;
65751;SDS011;52486;51.098;13.770;2023-10-19T03:14:18;5.82;;;4.20;;
65751;SDS011;52486;51.098;13.770;2023-10-19T03:16:44;5.35;;;3.90;;
65751;SDS011;52486;51.098;13.770;2023-10-19T03:19:11;8.70;;;4.30;;
65751;SDS011;52486;51.098;13.770;2023-10-19T03:21:39;6.05;;;4.35;;
65751;SDS011;52486;51.098;13.770;2023-10-19T03:24:08;9.85;;;4.38;;
65751;SDS011;52486;51.098;13.770;2023-10-19T03:26:38;10.77;;;4.68;;
65751;SDS011;52486;51.098;13.770;2023-10-19T03:29:12;7.53;;;4.43;;
65751;SDS011;52486;51.098;13.770;2023-10-19T03:31:39;12.05;;;4.82;;
65751;SDS011;52486;51.098;13.770;2023-10-19T03:34:12;7.20;;;4.63;;
65751;SDS011;52486;51.098;13.770;2023-10-19T03:36:39;6.43;;;4.30;;
65751;SDS011;52486;51.098;13.770;2023-10-19T03:39:05;5.63;;;4.10;;
65751;SDS011;52486;51.098;13.770;2023-10-19T03:41:38;6.70;;;3.63;;
65751;SDS011;52486;51.098;13.770;2023-10-19T03:44:07;9.23;;;4.10;;
65751;SDS011;52486;51.098;13.770;2023-10-19T03:46:39;5.15;;;3.33;;
65751;SDS011;52486;51.098;13.770;2023-10-19T03:49:18;5.38;;;3.85;;
65751;SDS011;52486;51.098;13.770;2023-10-19T03:51:45;5.63;;;3.90;;
65751;SDS011;52486;51.098;13.770;2023-10-19T03:54:26;6.43;;;4.00;;
65751;SDS011;52486;51.098;13.770;2023-10-19T03:56:53;4.45;;;3.60;;
65751;SDS011;52486;51.098;13.770;2023-10-19T03:59:21;6.25;;;4.15;;
65751;SDS011;52486;51.098;13.770;2023-10-19T04:01:50;6.57;;;4.32;;
65751;SDS011;52486;51.098;13.770;2023-10-19T04:04:16;8.80;;;4.70;;
65751;SDS011;52486;51.098;13.770;2023-10-19T04:06:42;5.68;;;3.53;;
65751;SDS011;52486;51.098;13.770;2023-10-19T04:09:13;7.63;;;4.07;;
65751;SDS011;52486;51.098;13.770;2023-10-19T04:14:15;5.72;;;3.83;;
65751;SDS011;52486;51.098;13.770;2023-10-19T04:16:41;5.20;;;4.00;;
65751;SDS011;52486;51.098;13.770;2023-10-19T04:19:10;8.27;;;4.57;;
65751;SDS011;52486;51.098;13.770;2023-10-19T04:21:37;5.00;;;4.10;;
65751;SDS011;52486;51.098;13.770;2023-10-19T04:24:09;5.50;;;3.90;;
65751;SDS011;52486;51.098;13.770;2023-10-19T04:26:36;5.55;;;4.55;;
65751;SDS011;52486;51.098;13.770;2023-10-19T04:29:02;4.20;;;3.53;;
65751;SDS011;52486;51.098;13.770;2023-10-19T04:31:44;9.23;;;4.65;;
65751;SDS011;52486;51.098;13.770;2023-10-19T04:34:19;6.15;;;4.50;;
65751;SDS011;52486;51.098;13.770;2023-10-19T04:36:49;4.93;;;3.70;;
65751;SDS011;52486;51.098;13.770;2023-10-19T04:39:15;6.22;;;3.42;;
65751;SDS011;52486;51.098;13.770;2023-10-19T04:41:44;5.80;;;4.15;;
65751;SDS011;52486;51.098;13.770;2023-10-19T04:44:10;5.93;;;4.20;;
65751;SDS011;52486;51.098;13.770;2023-10-19T04:46:36;5.78;;;4.22;;
65751;SDS011;52486;51.098;13.770;2023-10-19T04:49:03;6.85;;;4.03;;
65751;SDS011;52486;51.098;13.770;2023-10-19T04:51:29;7.70;;;4.88;;
65751;SDS011;52486;51.098;13.770;2023-10-19T04:53:55;7.13;;;4.95;;
65751;SDS011;52486;51.098;13.770;2023-10-19T04:56:21;5.50;;;3.97;;
65751;SDS011;52486;51.098;13.770;2023-10-19T04:58:47;7.63;;;4.78;;
65751;SDS011;52486;51.098;13.770;2023-10-19T05:01:13;5.72;;;4.15;;
65751;SDS011;52486;51.098;13.770;2023-10-19T05:03:39;5.45;;;4.80;;
65751;SDS011;52486;51.098;13.770;2023-10-19T05:06:06;5.00;;;4.50;;
65751;SDS011;52486;51.098;13.770;2023-10-19T05:08:32;5.60;;;4.03;;
65751;SDS011;52486;51.098;13.770;2023-10-19T05:10:58;5.30;;;4.05;;
65751;SDS011;52486;51.098;13.770;2023-10-19T05:13:24;8.55;;;4.13;;
65751;SDS011;52486;51.098;13.770;2023-10-19T05:15:51;4.90;;;3.50;;
65751;SDS011;52486;51.098;13.770;2023-10-19T05:18:18;7.15;;;3.70;;
65751;SDS011;52486;51.098;13.770;2023-10-19T05:20:45;6.55;;;4.40;;
65751;SDS011;52486;51.098;13.770;2023-10-19T05:23:11;6.05;;;4.60;;
65751;SDS011;52486;51.098;13.770;2023-10-19T05:25:38;7.35;;;5.00;;
65751;SDS011;52486;51.098;13.770;2023-10-19T05:28:05;6.13;;;4.53;;
65751;SDS011;52486;51.098;13.770;2023-10-19T05:30:31;7.82;;;4.53;;
65751;SDS011;52486;51.098;13.770;2023-10-19T05:32:58;4.30;;;3.80;;
65751;SDS011;52486;51.098;13.770;2023-10-19T05:35:25;6.82;;;4.78;;
65751;SDS011;52486;51.098;13.770;2023-10-19T05:37:55;4.25;;;3.42;;
65751;SDS011;52486;51.098;13.770;2023-10-19T05:40:24;8.85;;;3.92;;
65751;SDS011;52486;51.098;13.770;2023-10-19T05:42:55;6.50;;;3.42;;
65751;SDS011;52486;51.098;13.770;2023-10-19T05:45:22;5.30;;;3.55;;
65751;SDS011;52486;51.098;13.770;2023-10-19T05:47:48;6.93;;;3.00;;
65751;SDS011;52486;51.098;13.770;2023-10-19T05:50:13;4.95;;;3.05;;
65751;SDS011;52486;51.098;13.770;2023-10-19T05:52:40;3.88;;;3.25;;
65751;SDS011;52486;51.098;13.770;2023-10-19T05:55:07;5.53;;;3.35;;
65751;SDS011;52486;51.098;13.770;2023-10-19T05:57:33;4.70;;;3.38;;
65751;SDS011;52486;51.098;13.770;2023-10-19T06:00:00;4.38;;;3.08;;
65751;SDS011;52486;51.098;13.770;2023-10-19T06:02:26;5.78;;;3.35;;
65751;SDS011;52486;51.098;13.770;2023-10-19T06:04:52;5.18;;;3.83;;
65751;SDS011;52486;51.098;13.770;2023-10-19T06:07:18;5.72;;;3.40;;
65751;SDS011;52486;51.098;13.770;2023-10-19T06:09:46;5.38;;;3.88;;
65751;SDS011;52486;51.098;13.770;2023-10-19T06:12:12;4.47;;;3.25;;
65751;SDS011;52486;51.098;13.770;2023-10-19T06:14:38;4.63;;;3.20;;
65751;SDS011;52486;51.098;13.770;2023-10-19T06:17:04;3.55;;;3.05;;
65751;SDS011;52486;51.098;13.770;2023-10-19T06:19:30;3.78;;;2.70;;
65751;SDS011;52486;51.098;13.770;2023-10-19T06:21:55;3.92;;;2.88;;
65751;SDS011;52486;51.098;13.770;2023-10-19T06:24:21;5.75;;;3.17;;
65751;SDS011;52486;51.098;13.770;2023-10-19T06:26:47;5.28;;;2.95;;
65751;SDS011;52486;51.098;13.770;2023-10-19T06:29:13;3.88;;;2.85;;
65751;SDS011;52486;51.098;13.770;2023-10-19T06:31:39;4.03;;;2.70;;
65751;SDS011;52486;51.098;13.770;2023-10-19T06:34:04;4.00;;;3.03;;
65751;SDS011;52486;51.098;13.770;2023-10-19T06:36:30;7.07;;;2.60;;
65751;SDS011;52486;51.098;13.770;2023-10-19T06:38:55;7.18;;;3.35;;
65751;SDS011;52486;51.098;13.770;2023-10-19T06:41:21;4.90;;;3.03;;
65751;SDS011;52486;51.098;13.770;2023-10-19T06:43:49;6.10;;;3.38;;
65751;SDS011;52486;51.098;13.770;2023-10-19T06:46:15;4.18;;;3.20;;
65751;SDS011;52486;51.098;13.770;2023-10-19T06:48:41;5.57;;;3.22;;
65751;SDS011;52486;51.098;13.770;2023-10-19T06:51:07;8.82;;;3.42;;
65751;SDS011;52486;51.098;13.770;2023-10-19T06:53:33;3.42;;;3.00;;
65751;SDS011;52486;51.098;13.770;2023-10-19T06:56:00;4.60;;;2.78;;
65751;SDS011;52486;51.098;13.770;2023-10-19T06:58:26;5.03;;;3.10;;
65751;SDS011;52486;51.098;13.770;2023-10-19T07:00:52;5.57;;;3.35;;
65751;SDS011;52486;51.098;13.770;2023-10-19T07:03:21;7.50;;;3.45;;
65751;SDS011;52486;51.098;13.770;2023-10-19T07:05:53;4.55;;;3.05;;
65751;SDS011;52486;51.098;13.770;2023-10-19T07:08:19;6.00;;;3.67;;
65751;SDS011;52486;51.098;13.770;2023-10-19T07:10:46;5.32;;;3.25;;
65751;SDS011;52486;51.098;13.770;2023-10-19T07:13:11;3.83;;;2.90;;
65751;SDS011;52486;51.098;13.770;2023-10-19T07:15:37;6.28;;;3.25;;
65751;SDS011;52486;51.098;13.770;2023-10-19T07:18:06;4.07;;;2.90;;
65751;SDS011;52486;51.098;13.770;2023-10-19T07:20:32;3.78;;;2.90;;
65751;SDS011;52486;51.098;13.770;2023-10-19T07:23:01;4.05;;;2.97;;
65751;SDS011;52486;51.098;13.770;2023-10-19T07:25:33;5.28;;;3.33;;
65751;SDS011;52486;51.098;13.770;2023-10-19T07:28:08;5.57;;;3.72;;
65751;SDS011;52486;51.098;13.770;2023-10-19T07:30:34;6.38;;;4.15;;
65751;SDS011;52486;51.098;13.770;2023-10-19T07:33:00;5.22;;;3.50;;
65751;SDS011;52486;51.098;13.770;2023-10-19T07:35:26;7.20;;;3.58;;
65751;SDS011;52486;51.098;13.770;2023-10-19T07:37:52;5.28;;;3.30;;
65751;SDS011;52486;51.098;13.770;2023-10-19T07:40:21;4.40;;;3.17;;
65751;SDS011;52486;51.098;13.770;2023-10-19T07:42:49;7.85;;;3.72;;
65751;SDS011;52486;51.098;13.770;2023-10-19T07:45:17;6.53;;;4.10;;
65751;SDS011;52486;51.098;13.770;2023-10-19T07:47:43;7.78;;;3.72;;
65751;SDS011;52486;51.098;13.770;2023-10-19T07:50:13;4.53;;;3.55;;
65751;SDS011;52486;51.098;13.770;2023-10-19T07:52:45;11.25;;;3.75;;
65751;SDS011;52486;51.098;13.770;2023-10-19T07:55:18;7.35;;;3.83;;
65751;SDS011;52486;51.098;13.770;2023-10-19T07:57:44;9.80;;;3.92;;
65751;SDS011;52486;51.098;13.770;2023-10-19T08:00:11;7.20;;;3.78;;
65751;SDS011;52486;51.098;13.770;2023-10-19T08:02:40;9.73;;;3.72;;
65751;SDS011;52486;51.098;13.770;2023-10-19T08:05:07;7.10;;;3.47;;
65751;SDS011;52486;51.098;13.770;2023-10-19T08:07:33;10.35;;;4.40;;
65751;SDS011;52486;51.098;13.770;2023-10-19T08:10:01;11.27;;;4.22;;
65751;SDS011;52486;51.098;13.770;2023-10-19T08:12:27;7.80;;;4.35;;
65751;SDS011;52486;51.098;13.770;2023-10-19T08:14:53;6.90;;;3.75;;
65751;SDS011;52486;51.098;13.770;2023-10-19T08:17:20;5.47;;;3.70;;
65751;SDS011;52486;51.098;13.770;2023-10-19T08:19:46;6.18;;;4.00;;
65751;SDS011;52486;51.098;13.770;2023-10-19T08:22:12;7.95;;;4.35;;
65751;SDS011;52486;51.098;13.770;2023-10-19T08:24:39;9.23;;;4.60;;
65751;SDS011;52486;51.098;13.770;2023-10-19T08:27:08;7.30;;;4.35;;
65751;SDS011;52486;51.098;13.770;2023-10-19T08:29:36;5.55;;;3.90;;
65751;SDS011;52486;51.098;13.770;2023-10-19T08:32:02;6.47;;;4.15;;
65751;SDS011;52486;51.098;13.770;2023-10-19T08:34:27;8.77;;;4.60;;
65751;SDS011;52486;51.098;13.770;2023-10-19T08:36:55;9.40;;;4.63;;
65751;SDS011;52486;51.098;13.770;2023-10-19T08:39:21;9.02;;;4.68;;
65751;SDS011;52486;51.098;13.770;2023-10-19T08:41:49;7.93;;;4.03;;
65751;SDS011;52486;51.098;13.770;2023-10-19T08:44:18;6.18;;;4.10;;
65751;SDS011;52486;51.098;13.770;2023-10-19T08:46:44;10.25;;;4.75;;
65751;SDS011;52486;51.098;13.770;2023-10-19T08:49:12;6.65;;;4.10;;
65751;SDS011;52486;51.098;13.770;2023-10-19T08:51:40;7.18;;;3.78;;
65751;SDS011;52486;51.098;13.770;2023-10-19T08:54:09;5.70;;;3.87;;
65751;SDS011;52486;51.098;13.770;2023-10-19T08:56:37;8.48;;;3.75;;
65751;SDS011;52486;51.098;13.770;2023-10-19T08:59:03;8.30;;;3.67;;
65751;SDS011;52486;51.098;13.770;2023-10-19T09:01:31;10.13;;;3.95;;
65751;SDS011;52486;51.098;13.770;2023-10-19T09:04:00;4.95;;;3.60;;
65751;SDS011;52486;51.098;13.770;2023-10-19T09:06:26;5.88;;;3.78;;
65751;SDS011;52486;51.098;13.770;2023-10-19T09:08:54;5.22;;;3.80;;
65751;SDS011;52486;51.098;13.770;2023-10-19T09:11:20;4.43;;;3.33;;
65751;SDS011;52486;51.098;13.770;2023-10-19T09:13:47;7.80;;;3.78;;
65751;SDS011;52486;51.098;13.770;2023-10-19T09:16:18;5.20;;;3.33;;
65751;SDS011;52486;51.098;13.770;2023-10-19T09:18:51;8.98;;;3.60;;
65751;SDS011;52486;51.098;13.770;2023-10-19T09:21:17;12.48;;;3.80;;
65751;SDS011;52486;51.098;13.770;2023-10-19T09:23:54;5.07;;;3.60;;
65751;SDS011;52486;51.098;13.770;2023-10-19T09:26:21;7.68;;;3.83;;
65751;SDS011;52486;51.098;13.770;2023-10-19T09:28:49;6.30;;;3.80;;
65751;SDS011;52486;51.098;13.770;2023-10-19T09:31:16;5.07;;;3.38;;
65751;SDS011;52486;51.098;13.770;2023-10-19T09:33:43;5.70;;;3.42;;
65751;SDS011;52486;51.098;13.770;2023-10-19T09:36:11;5.43;;;3.35;;
65751;SDS011;52486;51.098;13.770;2023-10-19T09:38:44;6.53;;;3.78;;
65751;SDS011;52486;51.098;13.770;2023-10-19T09:41:13;5.70;;;3.45;;
65751;SDS011;52486;51.098;13.770;2023-10-19T09:43:43;6.13;;;3.35;;
65751;SDS011;52486;51.098;13.770;2023-10-19T09:46:10;5.72;;;3.30;;
65751;SDS011;52486;51.098;13.770;2023-10-19T09:48:41;7.15;;;3.15;;
65751;SDS011;52486;51.098;13.770;2023-10-19T09:51:08;4.22;;;3.20;;
65751;SDS011;52486;51.098;13.770;2023-10-19T09:53:35;10.23;;;3.40;;
65751;SDS011;52486;51.098;13.770;2023-10-19T09:56:03;7.32;;;3.33;;
65751;SDS011;52486;51.098;13.770;2023-10-19T09:58:40;5.78;;;3.55;;
65751;SDS011;52486;51.098;13.770;2023-10-19T10:01:10;5.05;;;3.50;;
65751;SDS011;52486;51.098;13.770;2023-10-19T10:03:43;4.45;;;3.00;;
65751;SDS011;52486;51.098;13.770;2023-10-19T10:06:14;7.00;;;3.63;;
65751;SDS011;52486;51.098;13.770;2023-10-19T10:08:41;3.33;;;2.72;;
65751;SDS011;52486;51.098;13.770;2023-10-19T10:13:44;6.03;;;3.60;;
65751;SDS011;52486;51.098;13.770;2023-10-19T10:16:12;4.47;;;3.10;;
65751;SDS011;52486;51.098;13.770;2023-10-19T10:18:40;8.38;;;3.33;;
65751;SDS011;52486;51.098;13.770;2023-10-19T10:23:55;3.65;;;2.90;;
65751;SDS011;52486;51.098;13.770;2023-10-19T10:26:26;5.15;;;3.40;;
65751;SDS011;52486;51.098;13.770;2023-10-19T10:31:34;5.27;;;2.40;;
65751;SDS011;52486;51.098;13.770;2023-10-19T10:34:05;4.60;;;2.97;;
65751;SDS011;52486;51.098;13.770;2023-10-19T10:39:28;8.10;;;3.08;;
65751;SDS011;52486;51.098;13.770;2023-10-19T10:41:59;6.53;;;2.90;;
65751;SDS011;52486;51.098;13.770;2023-10-19T10:44:41;5.70;;;2.67;;
65751;SDS011;52486;51.098;13.770;2023-10-19T10:47:12;4.40;;;2.70;;
65751;SDS011;52486;51.098;13.770;2023-10-19T10:54:54;6.45;;;2.20;;
65751;SDS011;52486;51.098;13.770;2023-10-19T10:57:20;3.88;;;2.35;;
65751;SDS011;52486;51.098;13.770;2023-10-19T10:59:59;8.95;;;2.72;;
65751;SDS011;52486;51.098;13.770;2023-10-19T11:02:30;4.85;;;2.45;;
65751;SDS011;52486;51.098;13.770;2023-10-19T11:04:56;5.63;;;2.45;;
65751;SDS011;52486;51.098;13.770;2023-10-19T11:07:22;8.38;;;2.65;;
65751;SDS011;52486;51.098;13.770;2023-10-19T11:09:49;6.68;;;2.30;;
65751;SDS011;52486;51.098;13.770;2023-10-19T11:12:14;2.38;;;2.00;;
65751;SDS011;52486;51.098;13.770;2023-10-19T11:14:56;4.30;;;2.55;;
65751;SDS011;52486;51.098;13.770;2023-10-19T11:17:24;6.00;;;2.50;;
65751;SDS011;52486;51.098;13.770;2023-10-19T11:19:56;5.80;;;2.50;;
65751;SDS011;52486;51.098;13.770;2023-10-19T11:22:25;5.43;;;2.15;;
65751;SDS011;52486;51.098;13.770;2023-10-19T11:24:52;3.85;;;2.38;;
65751;SDS011;52486;51.098;13.770;2023-10-19T11:27:26;6.80;;;2.45;;
65751;SDS011;52486;51.098;13.770;2023-10-19T11:29:58;8.85;;;2.47;;
65751;SDS011;52486;51.098;13.770;2023-10-19T11:32:35;4.55;;;2.40;;
65751;SDS011;52486;51.098;13.770;2023-10-19T11:35:03;2.65;;;2.15;;
65751;SDS011;52486;51.098;13.770;2023-10-19T11:37:29;7.10;;;2.60;;
65751;SDS011;52486;51.098;13.770;2023-10-19T11:39:55;3.90;;;2.40;;
65751;SDS011;52486;51.098;13.770;2023-10-19T11:42:21;4.53;;;2.30;;
65751;SDS011;52486;51.098;13.770;2023-10-19T11:44:47;2.92;;;2.17;;
65751;SDS011;52486;51.098;13.770;2023-10-19T11:47:13;7.53;;;2.95;;
65751;SDS011;52486;51.098;13.770;2023-10-19T11:49:39;5.03;;;3.28;;
65751;SDS011;52486;51.098;13.770;2023-10-19T11:52:08;5.72;;;4.18;;
65751;SDS011;52486;51.098;13.770;2023-10-19T11:54:34;4.07;;;3.50;;
65751;SDS011;52486;51.098;13.770;2023-10-19T11:56:59;6.40;;;4.28;;
65751;SDS011;52486;51.098;13.770;2023-10-19T11:59:25;5.47;;;3.65;;
65751;SDS011;52486;51.098;13.770;2023-10-19T12:01:51;8.52;;;3.55;;
65751;SDS011;52486;51.098;13.770;2023-10-19T12:04:17;4.40;;;4.00;;
65751;SDS011;52486;51.098;13.770;2023-10-19T12:06:44;5.78;;;5.10;;
65751;SDS011;52486;51.098;13.770;2023-10-19T12:09:13;7.47;;;5.70;;
65751;SDS011;52486;51.098;13.770;2023-10-19T12:11:42;6.82;;;5.18;;
65751;SDS011;52486;51.098;13.770;2023-10-19T12:14:09;6.93;;;5.50;;
65751;SDS011;52486;51.098;13.770;2023-10-19T12:16:40;9.27;;;6.43;;
65751;SDS011;52486;51.098;13.770;2023-10-19T12:19:06;6.80;;;5.55;;
65751;SDS011;52486;51.098;13.770;2023-10-19T12:21:35;7.07;;;5.90;;
65751;SDS011;52486;51.098;13.770;2023-10-19T12:24:02;7.05;;;6.07;;
65751;SDS011;52486;51.098;13.770;2023-10-19T12:26:29;10.40;;;6.40;;
65751;SDS011;52486;51.098;13.770;2023-10-19T12:28:55;6.88;;;6.20;;
65751;SDS011;52486;51.098;13.770;2023-10-19T12:31:21;7.55;;;6.10;;
65751;SDS011;52486;51.098;13.770;2023-10-19T12:33:48;9.40;;;6.03;;
65751;SDS011;52486;51.098;13.770;2023-10-19T12:36:14;7.18;;;6.00;;
65751;SDS011;52486;51.098;13.770;2023-10-19T12:38:56;7.63;;;5.32;;
65751;SDS011;52486;51.098;13.770;2023-10-19T12:41:22;5.88;;;5.30;;
65751;SDS011;52486;51.098;13.770;2023-10-19T12:43:48;6.18;;;5.57;;
65751;SDS011;52486;51.098;13.770;2023-10-19T12:46:22;6.38;;;5.75;;
65751;SDS011;52486;51.098;13.770;2023-10-19T12:48:49;7.40;;;5.57;;
65751;SDS011;52486;51.098;13.770;2023-10-19T12:51:16;7.55;;;5.75;;
65751;SDS011;52486;51.098;13.770;2023-10-19T12:53:48;6.93;;;5.70;;
65751;SDS011;52486;51.098;13.770;2023-10-19T12:56:16;6.72;;;5.97;;
65751;SDS011;52486;51.098;13.770;2023-10-19T12:58:43;10.20;;;7.38;;
65751;SDS011;52486;51.098;13.770;2023-10-19T13:01:09;7.43;;;5.80;;
65751;SDS011;52486;51.098;13.770;2023-10-19T13:03:41;12.65;;;5.80;;
65751;SDS011;52486;51.098;13.770;2023-10-19T13:06:10;6.68;;;6.00;;
65751;SDS011;52486;51.098;13.770;2023-10-19T13:08:37;6.22;;;5.63;;
65751;SDS011;52486;51.098;13.770;2023-10-19T13:11:05;6.25;;;5.05;;
65751;SDS011;52486;51.098;13.770;2023-10-19T13:13:31;7.55;;;5.57;;
65751;SDS011;52486;51.098;13.770;2023-10-19T13:15:57;8.10;;;5.63;;
65751;SDS011;52486;51.098;13.770;2023-10-19T13:18:23;6.10;;;5.25;;
65751;SDS011;52486;51.098;13.770;2023-10-19T13:20:54;6.55;;;5.82;;
65751;SDS011;52486;51.098;13.770;2023-10-19T13:23:22;5.43;;;4.93;;
65751;SDS011;52486;51.098;13.770;2023-10-19T13:25:47;5.20;;;4.70;;
65751;SDS011;52486;51.098;13.770;2023-10-19T13:28:23;6.13;;;5.10;;
65751;SDS011;52486;51.098;13.770;2023-10-19T13:30:52;6.85;;;5.15;;
65751;SDS011;52486;51.098;13.770;2023-10-19T13:33:18;6.03;;;4.90;;
65751;SDS011;52486;51.098;13.770;2023-10-19T13:38:15;8.70;;;6.45;;
65751;SDS011;52486;51.098;13.770;2023-10-19T13:40:42;8.18;;;7.30;;
65751;SDS011;52486;51.098;13.770;2023-10-19T13:43:10;7.00;;;6.10;;
65751;SDS011;52486;51.098;13.770;2023-10-19T13:45:39;5.97;;;5.18;;
65751;SDS011;52486;51.098;13.770;2023-10-19T13:48:07;5.60;;;5.10;;
65751;SDS011;52486;51.098;13.770;2023-10-19T13:50:34;6.93;;;4.90;;
65751;SDS011;52486;51.098;13.770;2023-10-19T13:53:00;5.80;;;5.20;;
65751;SDS011;52486;51.098;13.770;2023-10-19T13:55:28;7.90;;;4.75;;
65751;SDS011;52486;51.098;13.770;2023-10-19T13:57:54;6.45;;;5.30;;
65751;SDS011;52486;51.098;13.770;2023-10-19T14:00:23;7.38;;;4.75;;
65751;SDS011;52486;51.098;13.770;2023-10-19T14:03:00;7.57;;;4.70;;
65751;SDS011;52486;51.098;13.770;2023-10-19T14:05:29;5.28;;;4.78;;
65751;SDS011;52486;51.098;13.770;2023-10-19T14:08:01;4.95;;;4.43;;
65751;SDS011;52486;51.098;13.770;2023-10-19T14:10:28;6.25;;;4.40;;
65751;SDS011;52486;51.098;13.770;2023-10-19T14:12:55;4.70;;;4.30;;
65751;SDS011;52486;51.098;13.770;2023-10-19T14:15:22;5.55;;;4.20;;
65751;SDS011;52486;51.098;13.770;2023-10-19T14:17:48;5.80;;;4.78;;
65751;SDS011;52486;51.098;13.770;2023-10-19T14:20:15;4.82;;;4.22;;
65751;SDS011;52486;51.098;13.770;2023-10-19T14:25:09;4.88;;;4.38;;
65751;SDS011;52486;51.098;13.770;2023-10-19T14:27:45;6.20;;;4.10;;
65751;SDS011;52486;51.098;13.770;2023-10-19T14:30:13;4.22;;;3.83;;
65751;SDS011;52486;51.098;13.770;2023-10-19T14:32:47;4.13;;;3.72;;
65751;SDS011;52486;51.098;13.770;2023-10-19T14:35:14;4.90;;;4.40;;
65751;SDS011;52486;51.098;13.770;2023-10-19T14:37:44;4.75;;;3.78;;
65751;SDS011;52486;51.098;13.770;2023-10-19T14:40:14;6.10;;;4.25;;
65751;SDS011;52486;51.098;13.770;2023-10-19T14:42:42;4.93;;;4.18;;
65751;SDS011;52486;51.098;13.770;2023-10-19T14:45:09;4.00;;;3.60;;
65751;SDS011;52486;51.098;13.770;2023-10-19T14:47:39;4.10;;;3.75;;
65751;SDS011;52486;51.098;13.770;2023-10-19T14:50:12;4.88;;;4.03;;
65751;SDS011;52486;51.098;13.770;2023-10-19T14:52:39;4.53;;;3.80;;
65751;SDS011;52486;51.098;13.770;2023-10-19T14:55:12;4.25;;;3.85;;
65751;SDS011;52486;51.098;13.770;2023-10-19T14:57:41;4.22;;;3.83;;
65751;SDS011;52486;51.098;13.770;2023-10-19T15:00:08;4.28;;;3.88;;
65751;SDS011;52486;51.098;13.770;2023-10-19T15:02:44;6.60;;;3.88;;
65751;SDS011;52486;51.098;13.770;2023-10-19T15:05:10;5.20;;;3.60;;